Time;durP1;ratioP1;P1;durP2;ratioP2;P2;SDS_P1;SDS_P2;PMS_P1;PMS_P2;Temp;Humidity;BMP_temperature;BMP_pressure;BME280_temperature;BME280_humidity;BME280_pressure;Samples;Min_cycle;Max_cycle;Signal;HPM_P1;HPM_P2
2022/02/14 00:01:28;;;;;;;21.30;20.40;;;19.40;50.80;;;;;;5039623;28;20808;-43
2022/02/14 00:03:55;;;;;;;20.97;20.07;;;19.40;50.90;;;;;;5053562;28;20829;-42
2022/02/14 00:06:23;;;;;;;20.80;19.90;;;19.40;50.90;;;;;;5053173;28;20480;-42
2022/02/14 00:08:50;;;;;;;21.73;20.63;;;19.30;50.90;;;;;;5053375;28;20455;-42
2022/02/14 00:11:16;;;;;;;21.10;20.20;;;19.30;51.00;;;;;;5048780;28;20456;-42
2022/02/14 00:13:43;;;;;;;21.70;20.70;;;19.30;51.10;;;;;;5033528;28;20456;-42
2022/02/14 00:16:10;;;;;;;21.17;20.20;;;19.30;51.10;;;;;;5033223;28;20931;-42
2022/02/14 00:18:37;;;;;;;20.83;19.97;;;19.20;51.10;;;;;;5033297;28;20453;-42
2022/02/14 00:21:03;;;;;;;22.63;21.63;;;19.20;51.10;;;;;;5033464;28;20452;-42
2022/02/14 00:23:32;;;;;;;21.07;20.17;;;19.20;51.30;;;;;;5040844;28;20445;-42
2022/02/14 00:25:58;;;;;;;21.60;20.60;;;19.20;51.30;;;;;;5052861;28;20495;-42
2022/02/14 00:28:25;;;;;;;21.13;20.23;;;19.20;51.40;;;;;;5053503;28;20619;-42
2022/02/14 00:30:52;;;;;;;21.40;20.50;;;19.10;51.40;;;;;;5052919;28;20468;-42
2022/02/14 00:33:19;;;;;;;20.33;19.53;;;19.10;51.50;;;;;;5052975;28;20934;-42
2022/02/14 00:35:47;;;;;;;21.30;20.40;;;19.10;52.10;;;;;;5042671;28;20445;-42
2022/02/14 00:38:14;;;;;;;21.30;20.40;;;19.10;51.70;;;;;;5032899;28;20453;-42
2022/02/14 00:40:42;;;;;;;21.60;20.60;;;19.00;51.70;;;;;;5032922;28;20461;-42
2022/02/14 00:43:09;;;;;;;20.83;19.93;;;19.00;51.80;;;;;;5033067;28;20449;-42
2022/02/14 00:45:36;;;;;;;21.23;20.30;;;19.00;51.80;;;;;;5032626;28;20457;-42
2022/02/14 00:48:03;;;;;;;21.00;20.10;;;19.00;51.90;;;;;;5032832;28;20468;-42
2022/02/14 00:50:29;;;;;;;21.10;20.20;;;18.90;51.90;;;;;;5032577;28;20888;-42
2022/02/14 00:52:56;;;;;;;21.17;20.27;;;18.90;51.90;;;;;;5034980;28;20448;-42
2022/02/14 00:55:23;;;;;;;20.73;19.83;;;18.90;52.00;;;;;;5032917;28;20446;-41
2022/02/14 00:57:51;;;;;;;21.63;20.63;;;18.90;52.20;;;;;;5032541;28;20451;-42
2022/02/14 01:00:19;;;;;;;21.10;20.20;;;18.80;52.10;;;;;;5032510;28;20975;-42
2022/02/14 01:02:46;;;;;;;21.17;20.27;;;18.80;52.20;;;;;;5036143;28;20831;-42
2022/02/14 01:05:13;;;;;;;21.30;20.40;;;18.80;52.30;;;;;;5052271;28;20445;-42
2022/02/14 01:07:40;;;;;;;21.30;20.40;;;18.80;52.30;;;;;;5052225;28;20480;-42
2022/02/14 01:10:09;;;;;;;21.00;20.00;;;18.80;52.40;;;;;;5052177;28;20981;-42
2022/02/14 01:12:36;;;;;;;21.30;20.40;;;18.70;52.40;;;;;;5050140;28;20475;-41
2022/02/14 01:15:06;;;;;;;21.03;20.13;;;18.70;52.50;;;;;;5032633;28;20813;-42
2022/02/14 01:17:34;;;;;;;21.20;20.30;;;18.70;52.60;;;;;;5032089;28;20502;-42
2022/02/14 01:20:01;;;;;;;20.83;19.93;;;18.70;52.70;;;;;;5032140;28;20462;-43
2022/02/14 01:22:28;;;;;;;21.00;20.10;;;18.70;52.80;;;;;;5032644;28;20452;-42
2022/02/14 01:24:54;;;;;;;21.57;20.57;;;18.70;52.80;;;;;;5032281;28;20459;-42
2022/02/14 01:27:21;;;;;;;21.00;20.10;;;18.70;52.90;;;;;;5031894;28;20494;-42
2022/02/14 01:29:48;;;;;;;21.50;20.50;;;18.60;52.80;;;;;;5032038;28;20855;-42
2022/02/14 01:32:19;;;;;;;21.13;20.20;;;18.60;53.00;;;;;;5031990;28;20456;-42
2022/02/14 01:34:46;;;;;;;20.70;19.80;;;18.60;53.00;;;;;;5051229;28;20514;-42
2022/02/14 01:37:13;;;;;;;20.90;20.00;;;18.60;53.10;;;;;;5051599;28;20448;-41
2022/02/14 01:39:41;;;;;;;20.53;19.73;;;18.60;53.10;;;;;;5051784;28;20567;-42
2022/02/14 01:42:08;;;;;;;20.60;19.80;;;18.60;53.70;;;;;;5051919;28;20539;-42
2022/02/14 01:44:38;;;;;;;20.27;19.47;;;18.60;53.20;;;;;;5033982;28;20450;-42
2022/02/14 01:47:06;;;;;;;20.87;19.97;;;18.50;53.20;;;;;;5031803;28;20487;-42
2022/02/14 01:49:35;;;;;;;21.10;20.20;;;18.50;53.20;;;;;;5032182;28;20477;-42
2022/02/14 01:52:03;;;;;;;20.10;19.30;;;18.50;53.30;;;;;;5031796;28;20445;-42
2022/02/14 01:54:29;;;;;;;20.53;19.63;;;18.50;53.40;;;;;;5048140;28;20817;-42
2022/02/14 01:56:56;;;;;;;20.97;20.07;;;18.50;53.50;;;;;;5051381;28;20451;-41
2022/02/14 01:59:23;;;;;;;20.73;19.83;;;18.40;53.60;;;;;;5051531;28;20483;-42
2022/02/14 02:01:50;;;;;;;21.13;20.13;;;18.50;53.80;;;;;;5043053;28;20446;-42
2022/02/14 02:04:16;;;;;;;20.70;19.80;;;18.40;53.80;;;;;;5031624;28;20935;-42
2022/02/14 02:06:45;;;;;;;20.90;20.00;;;18.40;53.90;;;;;;5031325;28;20484;-42
2022/02/14 02:09:12;;;;;;;21.20;20.30;;;18.40;54.00;;;;;;5031805;28;20569;-42
2022/02/14 02:14:24;;;;;;;21.20;20.20;;;18.40;54.10;;;;;;5051582;28;20422;-42
2022/02/14 02:16:51;;;;;;;21.10;20.20;;;18.30;54.20;;;;;;5051097;28;20440;-42
2022/02/14 02:19:18;;;;;;;20.93;20.03;;;18.40;54.40;;;;;;5051389;28;20456;-42
2022/02/14 02:21:47;;;;;;;21.00;20.03;;;18.30;54.40;;;;;;5046435;28;20449;-42
2022/02/14 02:24:17;;;;;;;20.87;19.93;;;18.30;54.50;;;;;;5035515;28;20445;-42
2022/02/14 02:26:46;;;;;;;21.10;20.10;;;18.30;54.50;;;;;;5035342;28;20489;-42
2022/02/14 02:29:14;;;;;;;20.90;20.00;;;18.30;54.50;;;;;;5035399;28;21120;-42
2022/02/14 02:31:41;;;;;;;20.90;20.00;;;18.30;54.50;;;;;;5041449;28;20448;-42
2022/02/14 02:34:08;;;;;;;21.53;20.63;;;18.30;54.50;;;;;;5055255;28;20444;-42
2022/02/14 02:36:46;;;;;;;20.73;19.83;;;18.30;54.50;;;;;;5055152;28;20451;-42
2022/02/14 02:39:13;;;;;;;21.37;20.40;;;18.30;54.50;;;;;;5053351;28;20464;-44
2022/02/14 02:41:40;;;;;;;20.97;19.97;;;18.30;54.60;;;;;;5055200;28;20460;-42
2022/02/14 02:44:08;;;;;;;20.80;19.90;;;18.20;54.70;;;;;;5055068;28;20451;-42
2022/02/14 02:46:35;;;;;;;21.30;20.30;;;18.30;54.90;;;;;;5054695;28;20486;-42
2022/02/14 02:49:10;;;;;;;20.80;19.90;;;18.20;54.90;;;;;;5049174;28;20990;-43
2022/02/14 02:51:37;;;;;;;21.27;20.37;;;18.20;55.00;;;;;;5035105;28;20448;-42
2022/02/14 02:54:04;;;;;;;21.00;20.10;;;18.20;55.10;;;;;;5035229;28;20442;-42
2022/02/14 02:56:31;;;;;;;21.23;20.23;;;18.20;55.10;;;;;;5034776;28;20444;-42
2022/02/14 02:58:58;;;;;;;21.20;20.30;;;18.20;55.20;;;;;;5053152;28;20547;-42
2022/02/14 03:01:27;;;;;;;21.27;20.37;;;18.20;55.30;;;;;;5054677;28;20953;-42
2022/02/14 03:03:54;;;;;;;21.60;20.70;;;18.20;55.40;;;;;;5054796;28;20842;-41
2022/02/14 03:06:20;;;;;;;21.53;20.43;;;18.10;55.30;;;;;;5052626;28;20452;-42
2022/02/14 03:08:49;;;;;;;21.63;20.67;;;18.20;55.40;;;;;;5054572;28;20448;-42
2022/02/14 03:11:16;;;;;;;21.80;20.90;;;18.10;55.40;;;;;;5054651;28;20444;-42
2022/02/14 03:13:43;;;;;;;21.10;20.20;;;18.10;55.40;;;;;;5054516;28;20440;-42
2022/02/14 03:16:10;;;;;;;20.77;19.87;;;18.10;55.30;;;;;;5045173;28;20452;-42
2022/02/14 03:18:38;;;;;;;21.43;20.53;;;18.10;55.40;;;;;;5034690;28;20791;-42
2022/02/14 03:21:05;;;;;;;20.77;19.87;;;18.10;55.50;;;;;;5034515;28;20441;-42
2022/02/14 03:23:32;;;;;;;20.20;19.40;;;18.10;55.60;;;;;;5034467;28;20449;-42
2022/02/14 03:26:00;;;;;;;20.93;20.03;;;18.10;55.70;;;;;;5041086;28;20456;-42
2022/02/14 03:28:27;;;;;;;21.00;20.10;;;18.10;55.80;;;;;;5054162;28;20492;-42
2022/02/14 03:30:54;;;;;;;20.90;20.00;;;18.10;55.80;;;;;;5054014;28;20468;-42
2022/02/14 03:33:20;;;;;;;21.17;20.27;;;18.10;55.80;;;;;;5051247;28;20454;-42
2022/02/14 03:35:49;;;;;;;21.30;20.30;;;18.10;55.80;;;;;;5053981;28;20448;-42
2022/02/14 03:38:16;;;;;;;20.80;19.90;;;18.10;56.30;;;;;;5054091;28;20444;-41
2022/02/14 03:40:43;;;;;;;21.00;20.10;;;18.10;55.80;;;;;;5053927;28;20480;-42
2022/02/14 03:43:11;;;;;;;20.90;19.83;;;18.00;55.70;;;;;;5050735;28;20448;-42
2022/02/14 03:45:39;;;;;;;21.00;20.10;;;18.00;55.70;;;;;;5053736;28;20444;-42
2022/02/14 03:48:06;;;;;;;21.07;20.17;;;18.00;55.80;;;;;;5053714;28;20491;-42
2022/02/14 03:50:34;;;;;;;20.40;19.60;;;18.00;56.40;;;;;;5053848;28;20978;-41
2022/02/14 03:53:02;;;;;;;21.07;20.17;;;18.00;55.90;;;;;;5043235;28;20449;-42
2022/02/14 03:55:29;;;;;;;21.30;20.33;;;18.00;55.90;;;;;;5033764;28;20456;-42
2022/02/14 03:57:56;;;;;;;20.90;20.10;;;18.00;55.90;;;;;;5033761;28;20445;-42
2022/02/14 04:00:24;;;;;;;20.93;20.03;;;18.00;56.20;;;;;;5033914;28;20465;-42
2022/02/14 04:02:51;;;;;;;20.90;20.00;;;18.00;56.60;;;;;;5042271;28;20459;-42
2022/02/14 04:05:20;;;;;;;21.60;20.70;;;18.00;56.80;;;;;;5053450;28;20459;-42
2022/02/14 04:07:47;;;;;;;21.23;20.33;;;18.00;57.00;;;;;;5053482;28;20985;-42
2022/02/14 04:10:17;;;;;;;21.00;20.10;;;18.00;57.00;;;;;;5040162;28;20481;-42
2022/02/14 04:12:44;;;;;;;21.07;20.10;;;18.00;57.10;;;;;;5033584;28;20449;-42
2022/02/14 04:15:12;;;;;;;21.27;20.23;;;18.00;57.20;;;;;;5033327;28;20441;-42
2022/02/14 04:17:39;;;;;;;21.00;20.10;;;18.00;57.20;;;;;;5033382;28;20500;-41
2022/02/14 04:20:07;;;;;;;21.93;21.00;;;18.00;57.20;;;;;;5044724;28;20469;-43
2022/02/14 04:22:34;;;;;;;21.43;20.43;;;18.00;57.30;;;;;;5053166;28;20957;-42
2022/02/14 04:25:01;;;;;;;20.10;19.30;;;18.00;57.30;;;;;;5053179;28;21019;-42
2022/02/14 04:27:29;;;;;;;20.23;19.33;;;18.00;57.40;;;;;;5052809;28;20846;-42
2022/02/14 04:29:56;;;;;;;20.43;19.63;;;18.00;57.50;;;;;;5042596;28;20831;-41
2022/02/14 04:32:23;;;;;;;20.30;19.50;;;18.00;57.60;;;;;;5033233;28;20453;-41
2022/02/14 04:34:50;;;;;;;20.57;19.77;;;17.90;57.80;;;;;;5033113;28;20449;-42
2022/02/14 04:37:17;;;;;;;20.20;19.40;;;18.00;57.90;;;;;;5032903;28;20441;-42
2022/02/14 04:39:44;;;;;;;20.37;19.57;;;18.00;57.90;;;;;;5036419;28;20469;-42
2022/02/14 04:42:10;;;;;;;20.67;19.83;;;18.00;58.50;;;;;;5047385;28;20449;-42
2022/02/14 04:44:39;;;;;;;20.70;19.90;;;17.90;58.00;;;;;;5032533;28;20445;-42
2022/02/14 04:47:05;;;;;;;20.93;20.03;;;17.90;58.10;;;;;;5032782;28;20485;-42
2022/02/14 04:49:33;;;;;;;21.23;20.33;;;18.00;58.20;;;;;;5038763;28;20701;-45
2022/02/14 04:51:59;;;;;;;20.63;19.83;;;18.00;58.20;;;;;;5052646;28;20451;-43
2022/02/14 04:54:26;;;;;;;20.90;19.90;;;18.00;58.20;;;;;;5052880;28;20447;-47
2022/02/14 04:56:53;;;;;;;20.23;19.43;;;18.00;58.30;;;;;;5052434;28;20471;-44
2022/02/14 04:59:20;;;;;;;20.90;20.00;;;17.90;58.40;;;;;;5033967;28;20464;-42
2022/02/14 05:01:48;;;;;;;21.00;20.10;;;18.00;58.50;;;;;;5032598;28;20442;-42
2022/02/14 05:04:16;;;;;;;21.10;20.20;;;17.90;58.50;;;;;;5032559;28;20445;-42
2022/02/14 05:06:44;;;;;;;21.10;20.20;;;17.90;58.50;;;;;;5032350;28;20539;-43
2022/02/14 05:09:10;;;;;;;20.57;19.67;;;17.90;58.60;;;;;;5048466;28;20477;-41
2022/02/14 05:11:37;;;;;;;21.30;20.40;;;17.90;58.70;;;;;;5052583;28;20957;-46
2022/02/14 05:14:04;;;;;;;21.10;20.20;;;17.90;58.80;;;;;;5052175;28;20458;-42
2022/02/14 05:16:31;;;;;;;20.83;19.93;;;17.90;58.80;;;;;;5043443;28;20449;-43
2022/02/14 05:18:59;;;;;;;21.13;20.23;;;17.90;58.90;;;;;;5032251;28;20488;-44
2022/02/14 05:21:26;;;;;;;21.00;20.10;;;17.90;58.90;;;;;;5032121;28;20445;-42
2022/02/14 05:23:55;;;;;;;20.47;19.60;;;17.90;59.00;;;;;;5032222;28;20965;-41
2022/02/14 05:26:22;;;;;;;21.33;20.33;;;17.90;59.10;;;;;;5038793;28;20782;-42
2022/02/14 05:28:54;;;;;;;21.30;20.30;;;17.90;59.20;;;;;;5051414;28;20476;-41
2022/02/14 05:31:21;;;;;;;21.30;20.37;;;17.90;59.30;;;;;;5052069;28;20467;-42
2022/02/14 05:33:48;;;;;;;21.30;20.40;;;17.90;59.60;;;;;;5052005;28;20540;-41
2022/02/14 05:36:16;;;;;;;21.03;20.03;;;17.90;59.80;;;;;;5051776;28;20451;-41
2022/02/14 05:38:43;;;;;;;21.07;20.17;;;17.90;60.00;;;;;;5039484;28;20442;-42
2022/02/14 05:41:09;;;;;;;21.07;20.17;;;17.90;60.00;;;;;;5031956;28;20456;-41
2022/02/14 05:43:36;;;;;;;20.90;20.00;;;17.90;60.00;;;;;;5031939;28;20524;-43
2022/02/14 05:46:03;;;;;;;22.23;21.23;;;17.90;60.10;;;;;;5031709;28;20448;-41
2022/02/14 05:48:30;;;;;;;21.10;20.10;;;17.90;60.00;;;;;;5031716;28;20854;-41
2022/02/14 05:50:56;;;;;;;22.47;21.10;;;18.00;61.80;;;;;;5045795;28;20470;-42
2022/02/14 05:53:24;;;;;;;23.40;22.00;;;18.30;66.50;;;;;;5051728;28;20440;-43
2022/02/14 05:55:51;;;;;;;23.53;21.93;;;18.60;68.50;;;;;;5051005;28;20449;-41
2022/02/14 05:58:18;;;;;;;22.53;21.23;;;18.80;69.40;;;;;;5051449;28;20440;-42
2022/02/14 06:00:45;;;;;;;22.97;21.63;;;18.90;71.10;;;;;;5051525;28;20563;-42
2022/02/14 06:03:12;;;;;;;24.53;22.43;;;19.10;71.90;;;;;;5037161;28;20452;-41
2022/02/14 06:05:38;;;;;;;24.20;22.33;;;19.20;72.60;;;;;;5032564;28;20449;-40
2022/02/14 06:08:05;;;;;;;25.03;23.10;;;19.30;72.40;;;;;;5048639;28;21020;-41
2022/02/14 06:10:33;;;;;;;24.17;22.83;;;19.40;71.60;;;;;;5051320;28;20469;-40
2022/02/14 06:13:00;;;;;;;23.37;21.87;;;19.40;70.20;;;;;;5051448;28;20878;-40
2022/02/14 06:15:27;;;;;;;24.20;22.30;;;19.50;69.10;;;;;;5051302;28;20444;-40
2022/02/14 06:17:53;;;;;;;23.30;21.90;;;19.50;67.90;;;;;;5051321;28;20440;-40
2022/02/14 06:20:21;;;;;;;23.50;21.90;;;19.60;66.80;;;;;;5051477;28;20986;-40
2022/02/14 06:22:47;;;;;;;23.83;22.07;;;19.60;65.80;;;;;;5051483;28;20444;-40
2022/02/14 06:25:14;;;;;;;23.07;21.77;;;19.70;65.00;;;;;;5051177;28;20807;-41
2022/02/14 06:27:42;;;;;;;23.53;21.93;;;19.70;64.00;;;;;;5051207;28;20480;-40
2022/02/14 06:30:09;;;;;;;23.60;22.30;;;19.80;63.30;;;;;;5051133;28;20978;-40
2022/02/14 06:32:36;;;;;;;37.50;35.37;;;19.80;62.60;;;;;;5051178;28;20448;-40
2022/02/14 06:35:04;;;;;;;34.77;33.27;;;19.80;61.90;;;;;;5051220;28;20448;-40
2022/02/14 06:37:30;;;;;;;36.10;34.30;;;19.80;61.30;;;;;;5050822;28;20462;-40
2022/02/14 06:39:57;;;;;;;35.20;33.47;;;19.80;60.70;;;;;;5051089;28;20491;-41
2022/02/14 06:42:24;;;;;;;33.13;31.10;;;19.90;60.20;;;;;;5051060;28;20448;-40
2022/02/14 06:44:52;;;;;;;33.60;31.90;;;19.90;59.80;;;;;;5051246;28;20803;-40
2022/02/14 06:47:19;;;;;;;32.37;30.87;;;19.90;59.40;;;;;;5050838;28;20441;-40
2022/02/14 06:49:46;;;;;;;31.73;29.83;;;19.90;59.10;;;;;;5050869;28;20483;-40
2022/02/14 06:52:12;;;;;;;35.33;33.03;;;19.90;58.80;;;;;;5050983;28;20814;-40
2022/02/14 06:54:39;;;;;;;38.53;36.43;;;19.90;58.50;;;;;;5051292;28;20976;-40
2022/02/14 06:57:06;;;;;;;37.33;35.17;;;19.90;58.20;;;;;;5050773;28;20451;-41
2022/02/14 06:59:33;;;;;;;33.70;32.00;;;19.90;58.00;;;;;;5050964;28;20471;-40
2022/02/14 07:02:01;;;;;;;34.37;32.37;;;19.90;57.80;;;;;;5051024;28;20455;-40
2022/02/14 07:04:27;;;;;;;34.33;32.87;;;19.90;57.60;;;;;;5050956;28;20453;-40
2022/02/14 07:06:54;;;;;;;32.17;30.73;;;19.90;57.30;;;;;;5051708;28;20961;-42
2022/02/14 07:09:21;;;;;;;30.10;28.57;;;20.00;57.10;;;;;;5054445;28;20479;-41
2022/02/14 07:11:47;;;;;;;36.37;34.57;;;20.00;56.90;;;;;;5054638;28;20455;-40
2022/02/14 07:14:16;;;;;;;29.60;28.00;;;20.00;56.70;;;;;;5054575;28;20467;-41
2022/02/14 07:16:43;;;;;;;31.23;29.63;;;20.00;56.60;;;;;;5054319;28;20838;-40
2022/02/14 07:19:11;;;;;;;37.97;36.27;;;20.00;56.30;;;;;;5054382;28;20965;-40
2022/02/14 07:21:38;;;;;;;34.70;32.70;;;20.00;56.10;;;;;;5054411;28;20802;-41
2022/02/14 07:24:07;;;;;;;31.80;30.40;;;20.00;55.90;;;;;;5054292;28;20940;-40
2022/02/14 07:26:33;;;;;;;31.10;29.60;;;20.00;55.80;;;;;;5054142;28;20450;-40
2022/02/14 07:29:00;;;;;;;34.63;33.07;;;20.00;55.60;;;;;;5054249;28;20491;-40
2022/02/14 07:31:27;;;;;;;36.80;34.90;;;20.00;55.40;;;;;;5054219;28;20450;-40
2022/02/14 07:33:54;;;;;;;33.07;31.60;;;20.00;55.30;;;;;;5054088;28;20942;-41
2022/02/14 07:36:22;;;;;;;32.60;31.10;;;20.00;55.10;;;;;;5053852;28;20445;-41
2022/02/14 07:38:49;;;;;;;31.47;29.97;;;20.00;54.90;;;;;;5053930;28;20451;-40
2022/02/14 07:41:15;;;;;;;36.00;34.10;;;20.00;54.70;;;;;;5054096;28;20448;-40
2022/02/14 07:43:42;;;;;;;36.90;35.00;;;20.00;54.60;;;;;;5053981;28;20444;-41
2022/02/14 07:46:09;;;;;;;34.47;32.80;;;20.00;54.40;;;;;;5053679;28;20452;-40
2022/02/14 07:48:36;;;;;;;33.37;31.67;;;20.00;54.30;;;;;;5053645;28;20479;-40
2022/02/14 07:51:03;;;;;;;31.50;30.10;;;20.00;54.10;;;;;;5054683;28;20448;-40
2022/02/14 07:53:31;;;;;;;36.40;34.60;;;20.00;54.10;;;;;;5053994;28;20459;-40
2022/02/14 07:55:58;;;;;;;32.77;31.07;;;20.00;53.80;;;;;;5053583;28;20448;-41
2022/02/14 07:58:25;;;;;;;32.33;30.60;;;20.00;53.80;;;;;;5053715;28;20455;-40
2022/02/14 08:00:51;;;;;;;30.00;28.50;;;20.00;54.10;;;;;;5053638;28;20471;-42
2022/02/14 08:03:21;;;;;;;26.40;25.20;;;20.00;53.50;;;;;;5053643;28;20452;-40
2022/02/14 08:05:47;;;;;;;27.23;25.83;;;20.00;53.50;;;;;;5053392;28;20452;-40
2022/02/14 08:08:14;;;;;;;32.60;31.10;;;20.00;53.30;;;;;;5053200;28;20487;-41
2022/02/14 08:10:42;;;;;;;28.67;27.37;;;19.90;53.20;;;;;;5053325;28;20479;-40
2022/02/14 08:13:09;;;;;;;31.30;29.90;;;19.90;53.10;;;;;;5053448;28;20447;-40
2022/02/14 08:15:36;;;;;;;36.23;34.47;;;19.90;53.10;;;;;;5053329;28;20445;-40
2022/02/14 08:18:07;;;;;;;36.73;35.03;;;19.90;53.00;;;;;;5053064;28;20448;-40
2022/02/14 08:20:35;;;;;;;33.40;32.00;;;19.90;52.90;;;;;;5052785;28;20468;-40
2022/02/14 08:23:03;;;;;;;34.37;32.77;;;19.90;52.80;;;;;;5053232;28;20448;-40
2022/02/14 08:25:30;;;;;;;38.07;36.47;;;19.80;52.70;;;;;;5053027;28;20920;-40
2022/02/14 08:27:59;;;;;;;38.90;37.30;;;19.80;52.60;;;;;;5053101;28;20830;-41
2022/02/14 08:30:26;;;;;;;40.10;38.30;;;19.80;52.60;;;;;;5052983;28;20464;-40
2022/02/14 08:32:53;;;;;;;35.03;33.57;;;19.80;52.50;;;;;;5053137;28;20964;-40
2022/02/14 08:35:20;;;;;;;38.33;36.63;;;19.80;52.40;;;;;;5052881;28;20444;-41
2022/02/14 08:37:47;;;;;;;37.53;35.73;;;19.80;52.20;;;;;;5052809;28;20452;-40
2022/02/14 08:40:15;;;;;;;31.33;29.80;;;19.80;52.10;;;;;;5052850;28;20543;-41
2022/02/14 08:42:42;;;;;;;34.70;33.20;;;19.80;52.10;;;;;;5052746;28;20448;-40
2022/02/14 08:45:10;;;;;;;32.93;31.40;;;19.80;51.90;;;;;;5052908;28;20448;-41
2022/02/14 08:47:37;;;;;;;31.10;29.70;;;19.90;51.90;;;;;;5052651;28;20551;-40
2022/02/14 08:50:05;;;;;;;31.80;30.43;;;19.90;51.90;;;;;;5052491;28;20858;-40
2022/02/14 08:52:31;;;;;;;36.63;35.13;;;19.90;51.80;;;;;;5052557;28;20456;-40
2022/02/14 08:54:58;;;;;;;32.13;30.83;;;20.00;51.70;;;;;;5052567;28;20922;-41
2022/02/14 08:57:26;;;;;;;35.83;34.27;;;20.00;51.50;;;;;;5052433;28;20445;-40
2022/02/14 08:59:52;;;;;;;32.93;31.57;;;20.10;51.50;;;;;;5052445;28;20514;-40
2022/02/14 09:02:21;;;;;;;35.43;34.03;;;20.10;51.30;;;;;;5052464;28;20452;-40
2022/02/14 09:04:47;;;;;;;32.30;31.00;;;20.20;51.10;;;;;;5052406;28;20449;-40
2022/02/14 09:07:14;;;;;;;35.37;33.80;;;20.30;50.90;;;;;;5052139;28;20444;-40
2022/02/14 09:09:41;;;;;;;35.00;33.50;;;20.30;50.70;;;;;;5052086;28;20488;-42
2022/02/14 09:12:08;;;;;;;35.30;33.80;;;20.30;50.50;;;;;;5052303;28;20455;-41
2022/02/14 09:14:35;;;;;;;33.17;31.77;;;20.40;50.40;;;;;;5052258;28;20804;-40
2022/02/14 09:17:02;;;;;;;34.20;32.80;;;20.40;50.30;;;;;;5052058;28;20448;-41
2022/02/14 09:19:30;;;;;;;32.80;31.50;;;20.40;50.20;;;;;;5052080;28;20467;-40
2022/02/14 09:21:57;;;;;;;31.80;30.50;;;20.40;50.10;;;;;;5052134;28;20456;-40
2022/02/14 09:24:24;;;;;;;33.80;32.40;;;20.40;50.10;;;;;;5051990;28;20444;-41
2022/02/14 09:26:51;;;;;;;34.20;32.70;;;20.40;50.00;;;;;;5051868;28;20448;-40
2022/02/14 09:29:18;;;;;;;30.70;29.40;;;20.40;50.00;;;;;;5051873;28;20819;-40
2022/02/14 09:31:45;;;;;;;31.00;29.70;;;20.50;49.90;;;;;;5051027;28;20546;-40
2022/02/14 09:34:11;;;;;;;32.67;31.37;;;20.50;49.70;;;;;;5051902;28;20444;-40
2022/02/14 09:36:40;;;;;;;35.83;34.33;;;20.50;49.50;;;;;;5051674;28;20448;-41
2022/02/14 09:39:08;;;;;;;38.80;37.10;;;20.50;49.50;;;;;;5051734;28;20981;-41
2022/02/14 09:41:36;;;;;;;42.10;40.30;;;20.40;49.50;;;;;;5051739;28;20843;-40
2022/02/14 09:44:04;;;;;;;35.20;33.70;;;20.40;49.50;;;;;;5051739;28;20471;-40
2022/02/14 09:46:32;;;;;;;38.90;37.40;;;20.30;49.50;;;;;;5051505;28;20448;-42
2022/02/14 09:49:01;;;;;;;31.07;29.77;;;20.30;49.50;;;;;;5051577;28;20491;-40
2022/02/14 09:51:28;;;;;;;33.67;32.27;;;20.30;49.50;;;;;;5051787;28;20484;-40
2022/02/14 09:53:57;;;;;;;31.87;30.57;;;20.30;49.60;;;;;;5051679;28;20797;-40
2022/02/14 09:56:23;;;;;;;32.90;31.50;;;20.20;49.60;;;;;;5051460;28;20449;-41
2022/02/14 09:58:50;;;;;;;32.07;30.77;;;20.20;50.20;;;;;;5051513;28;20441;-40
2022/02/14 10:01:18;;;;;;;33.13;31.73;;;20.20;49.70;;;;;;5051433;28;20448;-42
2022/02/14 10:03:53;;;;;;;32.90;31.60;;;20.20;49.60;;;;;;5051815;28;20444;-40
2022/02/14 10:06:27;;;;;;;34.20;32.80;;;20.20;49.70;;;;;;5051460;28;20450;-40
2022/02/14 10:09:07;;;;;;;34.70;33.30;;;20.30;49.60;;;;;;5051290;28;20852;-40
2022/02/14 10:11:36;;;;;;;39.37;37.77;;;20.30;49.40;;;;;;5051463;28;20452;-40
2022/02/14 10:14:17;;;;;;;40.43;38.80;;;20.30;49.30;;;;;;5051401;28;20812;-40
2022/02/14 10:17:01;;;;;;;36.60;35.10;;;20.40;49.20;;;;;;5051427;28;20494;-40
2022/02/14 10:19:29;;;;;;;38.33;36.83;;;20.30;49.00;;;;;;5051444;28;20874;-41
2022/02/14 10:21:56;;;;;;;33.70;32.30;;;20.30;49.10;;;;;;5051264;28;20483;-40
2022/02/14 10:24:25;;;;;;;35.27;33.83;;;20.40;49.00;;;;;;5051347;28;20444;-40
2022/02/14 10:26:53;;;;;;;32.60;31.30;;;20.40;48.90;;;;;;5051169;28;20444;-41
2022/02/14 10:29:22;;;;;;;35.20;33.73;;;20.50;48.90;;;;;;5051114;28;20488;-40
2022/02/14 10:31:50;;;;;;;36.40;34.77;;;20.40;48.80;;;;;;5051359;28;20501;-41
2022/02/14 10:34:18;;;;;;;37.47;35.97;;;20.40;48.70;;;;;;5051265;28;20449;-41
2022/02/14 10:36:46;;;;;;;37.60;36.10;;;20.40;48.70;;;;;;5050794;28;20816;-40
2022/02/14 10:39:15;;;;;;;37.07;35.57;;;20.40;48.70;;;;;;5050953;28;20486;-40
2022/02/14 10:41:45;;;;;;;39.03;37.43;;;20.50;48.70;;;;;;5051782;28;20953;-41
2022/02/14 10:44:15;;;;;;;32.90;31.60;;;20.50;48.60;;;;;;5055056;28;20448;-40
2022/02/14 10:46:42;;;;;;;37.43;35.93;;;20.60;48.50;;;;;;5055031;28;20432;-40
2022/02/14 10:49:10;;;;;;;37.10;35.50;;;20.60;48.30;;;;;;5054840;28;20487;-41
2022/02/14 10:51:36;;;;;;;34.03;32.63;;;20.70;48.30;;;;;;5054879;28;20531;-41
2022/02/14 10:54:06;;;;;;;38.30;36.80;;;20.70;48.10;;;;;;5054867;28;20443;-40
2022/02/14 10:56:40;;;;;;;31.73;30.43;;;20.80;48.00;;;;;;5054623;28;20547;-41
2022/02/14 10:59:17;;;;;;;31.37;30.17;;;20.90;47.70;;;;;;5054827;28;20455;-41
2022/02/14 11:01:44;;;;;;;27.53;26.43;;;21.00;47.40;;;;;;5054840;28;20454;-41
2022/02/14 11:04:11;;;;;;;33.70;32.37;;;21.00;47.30;;;;;;5054705;28;20786;-40
2022/02/14 11:06:38;;;;;;;34.83;33.43;;;21.00;46.90;;;;;;5054353;28;20964;-41
2022/02/14 11:09:06;;;;;;;31.33;29.93;;;21.00;46.80;;;;;;5054439;28;20541;-40
2022/02/14 11:11:36;;;;;;;40.00;38.40;;;21.00;46.90;;;;;;5054502;28;20456;-40
2022/02/14 11:14:03;;;;;;;29.30;28.10;;;20.90;46.70;;;;;;5054528;28;20452;-40
2022/02/14 11:16:37;;;;;;;35.03;33.63;;;20.90;46.70;;;;;;5054357;28;20444;-41
2022/02/14 11:19:06;;;;;;;33.30;32.00;;;20.90;46.90;;;;;;5054481;28;20518;-40
2022/02/14 11:21:34;;;;;;;36.50;35.00;;;20.80;47.00;;;;;;5054327;28;20452;-40
2022/02/14 11:24:11;;;;;;;35.60;34.20;;;20.80;47.10;;;;;;5054499;28;20504;-40
2022/02/14 11:26:44;;;;;;;37.60;36.10;;;20.80;46.80;;;;;;5054179;28;20440;-41
2022/02/14 11:29:20;;;;;;;37.50;36.00;;;20.80;46.70;;;;;;5054248;28;20487;-42
2022/02/14 11:31:48;;;;;;;32.47;31.17;;;20.90;47.00;;;;;;5054291;28;20802;-42
2022/02/14 11:34:14;;;;;;;33.60;32.30;;;20.90;46.90;;;;;;5054035;28;20946;-40
2022/02/14 11:36:41;;;;;;;34.73;33.33;;;21.20;46.80;;;;;;5053732;28;20444;-42
2022/02/14 11:39:09;;;;;;;38.13;36.53;;;21.30;47.10;;;;;;5053865;28;20465;-41
2022/02/14 11:41:43;;;;;;;38.27;36.77;;;21.50;46.80;;;;;;5053889;28;20448;-41
2022/02/14 11:44:22;;;;;;;34.90;33.50;;;21.70;45.80;;;;;;5054072;28;20445;-44
2022/02/14 11:47:09;;;;;;;33.57;32.27;;;22.20;45.40;;;;;;5053789;28;20457;-41
2022/02/14 11:49:37;;;;;;;38.83;37.33;;;23.20;44.60;;;;;;5053471;28;20488;-41
2022/02/14 11:52:06;;;;;;;39.83;38.23;;;24.50;43.10;;;;;;5053866;28;20892;-41
2022/02/14 11:54:35;;;;;;;41.60;40.00;;;25.40;41.10;;;;;;5052704;28;20451;-41
2022/02/14 11:57:22;;;;;;;41.07;39.47;;;26.00;39.70;;;;;;5053661;28;20505;-41
2022/02/14 11:59:50;;;;;;;42.00;40.40;;;26.30;38.80;;;;;;5053719;28;20469;-41
2022/02/14 12:02:27;;;;;;;38.13;36.63;;;26.30;38.20;;;;;;5053601;28;20854;-40
2022/02/14 12:04:55;;;;;;;40.40;38.80;;;26.10;38.00;;;;;;5053580;28;20454;-41
2022/02/14 12:07:32;;;;;;;31.30;30.00;;;25.70;38.10;;;;;;5053422;28;20444;-41
2022/02/14 12:10:22;;;;;;;35.50;34.10;;;25.20;38.60;;;;;;5053450;28;20520;-41
2022/02/14 12:13:10;;;;;;;36.77;35.27;;;25.10;39.10;;;;;;5053466;28;20452;-41
2022/02/14 12:21:19;;;;;;;38.07;36.57;;;25.20;39.00;;;;;;5053377;28;20431;-42
2022/02/14 12:23:47;;;;;;;36.73;35.23;;;25.20;38.90;;;;;;5053181;28;20441;-41
2022/02/14 12:26:17;;;;;;;42.10;40.50;;;25.30;38.80;;;;;;5053094;28;20934;-40
2022/02/14 12:28:46;;;;;;;39.33;37.83;;;25.10;39.30;;;;;;5053045;28;20492;-41
2022/02/14 12:31:12;;;;;;;40.23;38.60;;;24.90;39.00;;;;;;5053006;28;20477;-41
2022/02/14 12:33:41;;;;;;;42.70;41.00;;;24.80;39.20;;;;;;5052808;28;20451;-40
2022/02/14 12:36:10;;;;;;;36.63;35.13;;;24.70;39.20;;;;;;5052683;28;20441;-41
2022/02/14 12:38:39;;;;;;;45.00;43.23;;;24.60;39.40;;;;;;5052763;28;20455;-41
2022/02/14 12:41:08;;;;;;;42.23;40.63;;;24.70;39.60;;;;;;5053043;28;20440;-42